Atwell, New York
Current Conditions -  °F | °C
As of 4:51 PM on Wednesday 26 Nov 2014 (Local Time) from KRME Reporting Station
Light Snow Light Snow  
Wind Chill: -4°   Ceiling: 1400
Heat Index: -1°   Visibility: 1.5mi
Dew Point: -2°   Wind: 6mph
Humidity: 93%   Direction: 340°NNW
Pressure: 30.07"   Gusts: NA
Location:  43.501°N, 75.1602°W
Report Text: KRME 262151Z 34005KT 1 1/2SM -SN BR OVC014 M01/M02 A3007 RMK AO2 P0002
Loading
Personal Weather Stations






























Interactive Weather Map New forecast layout! Learn more

10-Day Weather Forecast

Advertisements
Track Severe Weather on mobile